createdAt,value
2023-01-08T00:01:13.069Z,9.40
2023-01-08T00:03:40.498Z,9.40
2023-01-08T00:06:12.716Z,9.30
2023-01-08T00:08:39.555Z,9.30
2023-01-08T00:11:06.972Z,9.30
2023-01-08T00:13:34.251Z,9.30
2023-01-08T00:16:05.743Z,9.30
2023-01-08T00:18:32.659Z,9.30
2023-01-08T00:20:59.927Z,9.30
2023-01-08T00:23:26.686Z,9.30
2023-01-08T00:25:53.604Z,9.30
2023-01-08T00:28:23.455Z,9.30
2023-01-08T00:30:50.238Z,9.30
2023-01-08T00:33:17.459Z,9.30
2023-01-08T00:35:44.296Z,9.40
2023-01-08T00:38:11.339Z,9.30
2023-01-08T00:40:38.707Z,9.30
2023-01-08T00:43:05.366Z,9.30
2023-01-08T00:45:32.145Z,9.20
2023-01-08T00:47:59.312Z,9.20
2023-01-08T00:50:25.972Z,9.20
2023-01-08T00:52:52.662Z,9.30
2023-01-08T00:55:19.709Z,9.30
2023-01-08T00:57:46.367Z,9.30
2023-01-08T01:00:15.442Z,9.30
2023-01-08T01:02:42.608Z,9.30
2023-01-08T01:05:10.832Z,9.40
2023-01-08T01:07:37.839Z,9.40
2023-01-08T01:10:05.199Z,9.50
2023-01-08T01:12:31.868Z,9.50
2023-01-08T01:14:58.593Z,9.50
2023-01-08T01:17:25.534Z,9.50
2023-01-08T01:19:52.307Z,9.40
2023-01-08T01:22:18.952Z,9.30
2023-01-08T01:24:45.750Z,9.30
2023-01-08T01:27:12.456Z,9.30
2023-01-08T01:29:39.133Z,9.40
2023-01-08T01:32:06.334Z,9.30
2023-01-08T01:34:33.160Z,9.40
2023-01-08T01:36:59.917Z,9.50
2023-01-08T01:39:26.612Z,9.50
2023-01-08T01:41:53.821Z,9.50
2023-01-08T01:44:42.597Z,9.40
2023-01-08T01:47:37.406Z,9.40
2023-01-08T01:50:36.746Z,9.40
2023-01-08T01:53:06.877Z,9.40
2023-01-08T01:55:35.231Z,9.40
2023-01-08T01:58:08.457Z,9.50
2023-01-08T02:00:35.683Z,9.40
2023-01-08T02:03:03.509Z,9.40
2023-01-08T02:06:01.656Z,9.40
2023-01-08T02:08:48.880Z,9.40
2023-01-08T02:12:12.908Z,9.30
2023-01-08T02:14:57.968Z,9.30
2023-01-08T02:17:55.931Z,9.30
2023-01-08T02:20:49.932Z,9.30
2023-01-08T02:23:41.922Z,9.30
2023-01-08T02:26:26.293Z,9.30
2023-01-08T02:29:04.674Z,9.30
2023-01-08T02:31:33.021Z,9.30
2023-01-08T02:34:00.119Z,9.30
2023-01-08T02:36:39.361Z,9.30
2023-01-08T02:39:29.800Z,9.30
2023-01-08T02:42:34.162Z,9.30
2023-01-08T02:45:35.056Z,9.30
2023-01-08T02:48:11.140Z,9.30
2023-01-08T02:50:51.870Z,9.30
2023-01-08T02:53:25.147Z,9.30
2023-01-08T02:56:08.943Z,9.30
2023-01-08T02:58:37.317Z,9.30
2023-01-08T03:01:07.662Z,9.20
2023-01-08T03:03:37.639Z,9.20
2023-01-08T03:06:16.463Z,9.20
2023-01-08T03:08:46.488Z,9.20
2023-01-08T03:11:15.689Z,9.20
2023-01-08T03:14:00.464Z,9.20
2023-01-08T03:16:41.288Z,9.30
2023-01-08T03:19:20.410Z,9.30
2023-01-08T03:21:48.637Z,9.40
2023-01-08T03:24:19.078Z,9.40
2023-01-08T03:26:48.284Z,9.50
2023-01-08T03:29:18.309Z,9.40
2023-01-08T03:31:47.599Z,9.50
2023-01-08T03:34:15.906Z,9.50
2023-01-08T03:36:47.258Z,9.50
2023-01-08T03:39:20.847Z,9.50
2023-01-08T03:41:49.504Z,9.50
2023-01-08T03:44:16.600Z,9.60
2023-01-08T03:46:50.122Z,9.50
2023-01-08T03:49:17.844Z,9.50
2023-01-08T03:51:47.034Z,9.50
2023-01-08T03:54:16.813Z,9.50
2023-01-08T03:56:43.874Z,9.50
2023-01-08T03:59:12.384Z,9.50
2023-01-08T04:01:39.679Z,9.50
2023-01-08T04:04:07.174Z,9.50
2023-01-08T04:06:34.466Z,9.40
2023-01-08T04:09:01.223Z,9.40
2023-01-08T04:11:27.932Z,9.40
2023-01-08T04:13:54.740Z,9.30
2023-01-08T04:16:21.858Z,9.30
2023-01-08T04:18:48.794Z,9.30
2023-01-08T04:21:15.466Z,9.30
2023-01-08T04:23:42.175Z,9.30
2023-01-08T04:26:09.251Z,9.30
2023-01-08T04:28:36.689Z,9.30
2023-01-08T04:31:10.462Z,9.20
2023-01-08T04:33:37.673Z,9.20
2023-01-08T04:36:05.302Z,9.20
2023-01-08T04:38:31.986Z,9.10
2023-01-08T04:41:02.963Z,9.10
2023-01-08T04:43:30.954Z,9.10
2023-01-08T04:45:59.190Z,9.10
2023-01-08T04:48:26.465Z,9.10
2023-01-08T04:50:55.779Z,9.10
2023-01-08T04:53:22.433Z,9.00
2023-01-08T04:55:49.135Z,9.00
2023-01-08T04:58:15.962Z,9.00
2023-01-08T05:00:42.643Z,9.00
2023-01-08T05:03:09.488Z,9.00
2023-01-08T05:05:36.802Z,9.10
2023-01-08T05:08:03.863Z,9.10
2023-01-08T05:10:30.742Z,9.10
2023-01-08T05:13:01.420Z,9.20
2023-01-08T05:15:28.789Z,9.20
2023-01-08T05:18:05.761Z,9.20
2023-01-08T05:20:33.327Z,9.20
2023-01-08T05:23:00.178Z,9.20
2023-01-08T05:25:26.852Z,9.20
2023-01-08T05:27:53.931Z,9.30
2023-01-08T05:30:20.576Z,9.30
2023-01-08T05:32:47.460Z,9.20
2023-01-08T05:35:14.175Z,9.30
2023-01-08T05:37:40.946Z,9.30
2023-01-08T05:40:08.044Z,9.30
2023-01-08T05:42:35.517Z,9.30
2023-01-08T05:45:06.716Z,9.30
2023-01-08T05:47:34.456Z,9.30
2023-01-08T05:50:01.589Z,9.30
2023-01-08T05:52:28.966Z,9.40
2023-01-08T05:54:56.157Z,9.40
2023-01-08T05:57:22.891Z,9.40
2023-01-08T05:59:49.600Z,9.50
2023-01-08T06:02:16.274Z,9.50
2023-01-08T06:04:43.649Z,9.50
2023-01-08T06:07:10.466Z,9.50
2023-01-08T06:09:37.194Z,9.40
2023-01-08T06:12:04.073Z,9.50
2023-01-08T06:14:30.720Z,9.40
2023-01-08T06:16:57.329Z,9.40
2023-01-08T06:19:24.130Z,9.40
2023-01-08T06:21:51.253Z,9.40
2023-01-08T06:24:17.901Z,9.40
2023-01-08T06:26:44.545Z,9.40
2023-01-08T06:29:11.202Z,9.40
2023-01-08T06:31:37.891Z,9.40
2023-01-08T06:34:04.576Z,9.40
2023-01-08T06:36:31.261Z,9.30
2023-01-08T06:38:57.956Z,9.30
2023-01-08T06:41:24.800Z,9.40
2023-01-08T06:43:51.465Z,9.40
2023-01-08T06:46:18.136Z,9.30
2023-01-08T06:48:45.050Z,9.30
2023-01-08T06:51:11.727Z,9.30
2023-01-08T06:53:38.377Z,9.30
2023-01-08T06:56:07.437Z,9.30
2023-01-08T06:58:34.057Z,9.30
2023-01-08T07:01:00.854Z,9.30
2023-01-08T07:03:27.730Z,9.30
2023-01-08T07:05:55.377Z,9.30
2023-01-08T07:08:22.534Z,9.30
2023-01-08T07:10:49.223Z,9.30
2023-01-08T07:13:15.964Z,9.30
2023-01-08T07:15:43.063Z,9.30
2023-01-08T07:18:11.927Z,9.30
2023-01-08T07:20:39.052Z,9.30
2023-01-08T07:23:09.121Z,9.30
2023-01-08T07:25:35.830Z,9.30
2023-01-08T07:28:02.690Z,9.30
2023-01-08T07:30:30.735Z,9.30
2023-01-08T07:33:03.634Z,9.30
2023-01-08T07:35:30.541Z,9.30
2023-01-08T07:37:57.303Z,9.30
2023-01-08T07:40:24.294Z,9.30
2023-01-08T07:43:01.934Z,9.30
2023-01-08T07:45:29.834Z,9.30
2023-01-08T07:48:00.346Z,9.30
2023-01-08T07:50:27.601Z,9.30
2023-01-08T07:52:58.512Z,9.30
2023-01-08T07:55:25.339Z,9.30
2023-01-08T07:57:52.012Z,9.30
2023-01-08T08:00:19.201Z,9.30
2023-01-08T08:02:46.068Z,9.40
2023-01-08T08:05:12.831Z,9.30
2023-01-08T08:07:39.504Z,9.40
2023-01-08T08:10:06.656Z,9.40
2023-01-08T08:12:33.337Z,9.40
2023-01-08T08:15:00.154Z,9.40
2023-01-08T08:17:26.950Z,9.40
2023-01-08T08:19:53.750Z,9.40
2023-01-08T08:22:20.457Z,9.40
2023-01-08T08:24:47.125Z,9.40
2023-01-08T08:27:13.821Z,9.40
2023-01-08T08:29:40.481Z,9.40
2023-01-08T08:32:07.271Z,9.40
2023-01-08T08:34:34.128Z,9.40
2023-01-08T08:37:00.784Z,9.40
2023-01-08T08:39:27.480Z,9.40
2023-01-08T08:41:54.195Z,9.40
2023-01-08T08:44:21.035Z,9.40
2023-01-08T08:46:47.718Z,9.40
2023-01-08T08:49:14.369Z,9.40
2023-01-08T08:51:40.993Z,9.40
2023-01-08T08:54:07.670Z,9.40
2023-01-08T08:56:34.327Z,9.40
2023-01-08T08:59:01.075Z,9.40
2023-01-08T09:01:28.053Z,9.40
2023-01-08T09:03:54.787Z,9.40
2023-01-08T09:06:21.436Z,9.40
2023-01-08T09:08:48.091Z,9.40
2023-01-08T09:11:14.816Z,9.40
2023-01-08T09:13:41.466Z,9.40
2023-01-08T09:16:08.302Z,9.40
2023-01-08T09:18:35.131Z,9.40
2023-01-08T09:21:06.947Z,9.40
2023-01-08T09:23:34.735Z,9.40
2023-01-08T09:26:02.405Z,9.40
2023-01-08T09:28:29.149Z,9.40
2023-01-08T09:30:55.891Z,9.40
2023-01-08T09:33:22.574Z,9.40
2023-01-08T09:35:49.369Z,9.40
2023-01-08T09:38:16.028Z,9.50
2023-01-08T09:41:00.860Z,9.50
2023-01-08T09:43:30.959Z,9.50
2023-01-08T09:46:02.438Z,9.50
2023-01-08T09:48:34.325Z,9.50
2023-01-08T09:51:01.090Z,9.60
2023-01-08T09:53:28.220Z,9.50
2023-01-08T09:56:10.320Z,9.60
2023-01-08T09:58:44.551Z,9.60
2023-01-08T10:01:14.499Z,9.60
2023-01-08T10:03:55.811Z,9.60
2023-01-08T10:06:23.837Z,9.70
2023-01-08T10:08:51.733Z,9.70
2023-01-08T10:11:20.026Z,9.80
2023-01-08T10:13:53.114Z,9.80
2023-01-08T10:16:27.094Z,9.80
2023-01-08T10:18:53.851Z,9.80
2023-01-08T10:21:22.187Z,9.80
2023-01-08T10:23:51.002Z,9.80
2023-01-08T10:26:33.888Z,9.90
2023-01-08T10:29:14.050Z,9.90
2023-01-08T10:31:47.404Z,9.90
2023-01-08T10:34:26.033Z,9.90
2023-01-08T10:36:54.892Z,10.00
2023-01-08T10:39:26.031Z,9.90
2023-01-08T10:41:54.952Z,9.90
2023-01-08T10:44:24.399Z,10.00
2023-01-08T10:46:55.830Z,10.00
2023-01-08T10:49:39.338Z,10.00
2023-01-08T10:52:06.284Z,10.00
2023-01-08T10:54:34.724Z,10.10
2023-01-08T10:57:02.630Z,10.10
2023-01-08T10:59:29.783Z,10.10
2023-01-08T11:01:58.529Z,10.20
2023-01-08T11:04:30.287Z,10.20
2023-01-08T11:06:59.841Z,10.20
2023-01-08T11:09:32.706Z,10.20
2023-01-08T11:12:00.465Z,10.30
2023-01-08T11:14:35.097Z,10.30
2023-01-08T11:17:10.382Z,10.30
2023-01-08T11:19:37.495Z,10.40
2023-01-08T11:22:18.100Z,10.40
2023-01-08T11:24:45.965Z,10.40
2023-01-08T11:27:12.567Z,10.40
2023-01-08T11:29:44.364Z,10.40
2023-01-08T11:32:42.108Z,10.50
2023-01-08T11:35:29.778Z,10.40
2023-01-08T11:37:59.576Z,10.50
2023-01-08T11:40:38.569Z,10.50
2023-01-08T11:43:27.644Z,10.40
2023-01-08T11:46:21.508Z,10.50
2023-01-08T11:49:18.542Z,10.50
2023-01-08T11:52:06.985Z,10.40
2023-01-08T11:55:10.936Z,10.40
2023-01-08T11:57:43.781Z,10.40
2023-01-08T12:00:29.020Z,10.40
2023-01-08T12:03:08.111Z,10.40
2023-01-08T12:05:47.557Z,10.40
2023-01-08T12:08:43.514Z,10.40
2023-01-08T12:11:27.339Z,10.40
2023-01-08T12:14:34.713Z,10.40
2023-01-08T12:17:30.909Z,10.40
2023-01-08T12:20:06.991Z,10.40
2023-01-08T12:22:58.483Z,10.40
2023-01-08T12:25:56.243Z,10.40
2023-01-08T12:28:39.274Z,10.40
2023-01-08T12:31:22.051Z,10.40
2023-01-08T12:34:00.501Z,10.40
2023-01-08T12:37:03.329Z,10.50
2023-01-08T12:39:38.516Z,10.50
2023-01-08T12:42:18.185Z,10.50
2023-01-08T12:44:46.729Z,10.50
2023-01-08T12:47:18.012Z,10.50
2023-01-08T12:49:51.574Z,10.50
2023-01-08T12:52:46.651Z,10.50
2023-01-08T12:55:44.514Z,10.50
2023-01-08T12:58:54.053Z,10.50
2023-01-08T13:01:45.154Z,10.60
2023-01-08T13:04:13.400Z,10.60
2023-01-08T13:06:51.246Z,10.60
2023-01-08T13:09:24.595Z,10.60
2023-01-08T13:11:53.199Z,10.60
2023-01-08T13:14:20.413Z,10.60
2023-01-08T13:16:59.992Z,10.60
2023-01-08T13:19:29.875Z,10.60
2023-01-08T13:21:58.604Z,10.60
2023-01-08T13:24:28.734Z,10.60
2023-01-08T13:26:56.875Z,10.70
2023-01-08T13:29:44.448Z,10.70
2023-01-08T13:32:46.985Z,10.60
2023-01-08T13:35:16.881Z,10.60
2023-01-08T13:37:45.319Z,10.60
2023-01-08T13:40:44.707Z,10.60
2023-01-08T13:43:21.733Z,10.60
2023-01-08T13:45:57.746Z,10.60
2023-01-08T13:48:27.787Z,10.70
2023-01-08T13:50:54.984Z,10.70
2023-01-08T13:53:22.374Z,10.80
2023-01-08T13:56:09.669Z,10.80
2023-01-08T13:58:42.667Z,10.80
2023-01-08T14:01:11.548Z,10.80
2023-01-08T14:03:44.847Z,10.80
2023-01-08T14:06:21.688Z,10.70
2023-01-08T14:09:01.467Z,10.70
2023-01-08T14:11:42.378Z,10.70
2023-01-08T14:14:17.405Z,10.70
2023-01-08T14:16:44.832Z,10.70
2023-01-08T14:19:16.560Z,10.70
2023-01-08T14:21:58.152Z,10.70
2023-01-08T14:24:26.223Z,10.70
2023-01-08T14:26:58.188Z,10.70
2023-01-08T14:29:27.824Z,10.60
2023-01-08T14:31:57.689Z,10.60
2023-01-08T14:34:27.794Z,10.60
2023-01-08T14:36:55.970Z,10.60
2023-01-08T14:39:25.603Z,10.60
2023-01-08T14:42:14.679Z,10.60
2023-01-08T14:44:44.345Z,10.60
2023-01-08T14:47:19.854Z,10.60
2023-01-08T14:49:54.167Z,10.60
2023-01-08T14:52:21.493Z,10.60
2023-01-08T14:54:56.218Z,10.50
2023-01-08T14:57:24.340Z,10.50
2023-01-08T14:59:57.314Z,10.50
2023-01-08T15:02:31.395Z,10.50
2023-01-08T15:05:14.017Z,10.50
2023-01-08T15:07:44.250Z,10.50
2023-01-08T15:10:43.747Z,10.50
2023-01-08T15:13:25.348Z,10.50
2023-01-08T15:15:58.143Z,10.50
2023-01-08T15:18:25.765Z,10.40
2023-01-08T15:20:53.308Z,10.40
2023-01-08T15:23:48.522Z,10.50
2023-01-08T15:26:16.268Z,10.40
2023-01-08T15:28:55.621Z,10.50
2023-01-08T15:31:44.718Z,10.50
2023-01-08T15:34:11.476Z,10.50
2023-01-08T15:36:40.561Z,10.50
2023-01-08T15:39:07.217Z,10.40
2023-01-08T15:41:57.575Z,10.40
2023-01-08T15:44:25.379Z,10.30
2023-01-08T15:46:54.081Z,10.30
2023-01-08T15:49:20.921Z,10.30
2023-01-08T15:51:49.712Z,10.30
2023-01-08T15:54:16.671Z,10.30
2023-01-08T15:56:43.462Z,10.20
2023-01-08T15:59:11.296Z,10.20
2023-01-08T16:01:38.407Z,10.20
2023-01-08T16:04:05.304Z,10.20
2023-01-08T16:06:32.201Z,10.20
2023-01-08T16:09:00.459Z,10.20
2023-01-08T16:11:27.237Z,10.20
2023-01-08T16:13:54.523Z,10.20
2023-01-08T16:16:21.447Z,10.20
2023-01-08T16:18:48.154Z,10.10
2023-01-08T16:21:14.806Z,10.10
2023-01-08T16:23:42.153Z,10.10
2023-01-08T16:26:14.379Z,10.10
2023-01-08T16:28:41.311Z,10.10
2023-01-08T16:31:08.885Z,10.10
2023-01-08T16:33:35.903Z,10.10
2023-01-08T16:36:05.683Z,10.10
2023-01-08T16:38:36.110Z,10.10
2023-01-08T16:41:04.234Z,10.00
2023-01-08T16:43:37.728Z,10.00
2023-01-08T16:46:13.589Z,9.90
2023-01-08T16:48:42.190Z,9.90
2023-01-08T16:51:08.992Z,9.90
2023-01-08T16:53:36.982Z,9.90
2023-01-08T16:56:04.245Z,9.90
2023-01-08T16:58:31.888Z,9.80
2023-01-08T17:00:58.966Z,9.80
2023-01-08T17:03:25.727Z,9.80
2023-01-08T17:05:53.049Z,9.80
2023-01-08T17:08:20.604Z,9.80
2023-01-08T17:10:47.311Z,9.80
2023-01-08T17:13:13.940Z,9.70
2023-01-08T17:15:40.855Z,9.70
2023-01-08T17:18:07.501Z,9.70
2023-01-08T17:20:34.276Z,9.70
2023-01-08T17:23:01.623Z,9.60
2023-01-08T17:25:28.434Z,9.60
2023-01-08T17:27:55.227Z,9.60
2023-01-08T17:30:22.111Z,9.60
2023-01-08T17:32:48.961Z,9.60
2023-01-08T17:35:15.700Z,9.60
2023-01-08T17:37:42.382Z,9.60
2023-01-08T17:40:09.717Z,9.60
2023-01-08T17:42:36.455Z,9.60
2023-01-08T17:45:05.608Z,9.60
2023-01-08T17:47:32.546Z,9.60
2023-01-08T17:50:02.084Z,9.70
2023-01-08T17:52:28.858Z,9.70
2023-01-08T17:54:55.561Z,9.60
2023-01-08T17:57:22.493Z,9.70
2023-01-08T17:59:49.530Z,9.60
2023-01-08T18:02:17.528Z,9.60
2023-01-08T18:04:45.587Z,9.70
2023-01-08T18:07:12.343Z,9.60
2023-01-08T18:09:39.020Z,9.60
2023-01-08T18:12:05.874Z,9.60
2023-01-08T18:14:34.891Z,9.60
2023-01-08T18:17:01.846Z,9.60
2023-01-08T18:19:28.629Z,9.60
2023-01-08T18:21:55.402Z,9.60
2023-01-08T18:24:22.118Z,9.50
2023-01-08T18:26:50.199Z,9.50
2023-01-08T18:29:16.845Z,9.50
2023-01-08T18:31:46.035Z,9.50
2023-01-08T18:34:14.965Z,9.50
2023-01-08T18:36:43.112Z,9.50
2023-01-08T18:39:11.347Z,9.50
2023-01-08T18:41:57.077Z,9.60
2023-01-08T18:44:23.897Z,9.60
2023-01-08T18:46:50.592Z,9.60
2023-01-08T18:49:17.397Z,9.60
2023-01-08T18:51:44.042Z,9.60
2023-01-08T18:54:11.599Z,9.60
2023-01-08T18:56:38.690Z,9.60
2023-01-08T18:59:07.017Z,9.50
2023-01-08T19:01:35.529Z,9.50
2023-01-08T19:04:02.532Z,9.50
2023-01-08T19:06:29.435Z,9.50
2023-01-08T19:08:58.191Z,9.50
2023-01-08T19:11:25.641Z,9.50
2023-01-08T19:13:57.084Z,9.40
2023-01-08T19:16:24.386Z,9.40
2023-01-08T19:18:51.351Z,9.40
2023-01-08T19:21:19.839Z,9.40
2023-01-08T19:23:47.278Z,9.40
2023-01-08T19:26:14.613Z,9.40
2023-01-08T19:28:42.487Z,9.30
2023-01-08T19:31:12.254Z,9.30
2023-01-08T19:33:39.396Z,9.30
2023-01-08T19:36:15.842Z,9.30
2023-01-08T19:38:44.076Z,9.40
2023-01-08T19:41:35.832Z,9.40
2023-01-08T19:44:06.407Z,9.40
2023-01-08T19:46:33.093Z,9.30
2023-01-08T19:49:00.514Z,9.30
2023-01-08T19:51:28.730Z,9.30
2023-01-08T19:53:56.966Z,9.30
2023-01-08T19:56:23.800Z,9.30
2023-01-08T19:58:50.564Z,9.30
2023-01-08T20:01:23.185Z,9.30
2023-01-08T20:03:50.447Z,9.30
2023-01-08T20:06:20.718Z,9.30
2023-01-08T20:08:48.851Z,9.30
2023-01-08T20:11:16.977Z,9.30
2023-01-08T20:13:44.121Z,9.40
2023-01-08T20:16:16.007Z,9.40
2023-01-08T20:18:45.274Z,9.40
2023-01-08T20:21:17.544Z,9.40
2023-01-08T20:23:45.398Z,9.40
2023-01-08T20:26:18.089Z,9.40
2023-01-08T20:28:46.236Z,9.40
2023-01-08T20:31:15.461Z,9.40
2023-01-08T20:33:43.050Z,9.40
2023-01-08T20:36:15.914Z,9.50
2023-01-08T20:38:43.615Z,9.40
2023-01-08T20:41:11.531Z,9.40
2023-01-08T20:43:39.890Z,9.40
2023-01-08T20:46:09.769Z,9.40
2023-01-08T20:48:42.897Z,9.40
2023-01-08T20:51:13.489Z,9.40
2023-01-08T20:53:40.714Z,9.40
2023-01-08T20:56:13.242Z,9.40
2023-01-08T20:58:42.623Z,9.40
2023-01-08T21:01:13.829Z,9.40
2023-01-08T21:03:41.349Z,9.40
2023-01-08T21:06:14.323Z,9.40
2023-01-08T21:08:41.996Z,9.40
2023-01-08T21:11:09.903Z,9.40
2023-01-08T21:13:37.670Z,9.40
2023-01-08T21:16:07.825Z,9.40
2023-01-08T21:18:34.625Z,9.40
2023-01-08T21:21:03.502Z,9.40
2023-01-08T21:23:31.925Z,9.40
2023-01-08T21:26:04.569Z,9.40
2023-01-08T21:28:32.161Z,9.40
2023-01-08T21:31:08.127Z,9.40
2023-01-08T21:33:35.030Z,9.40
2023-01-08T21:36:10.050Z,9.40
2023-01-08T21:38:36.973Z,9.40
2023-01-08T21:41:06.655Z,9.40
2023-01-08T21:43:51.895Z,9.40
2023-01-08T21:46:20.023Z,9.40
2023-01-08T21:48:52.055Z,9.30
2023-01-08T21:51:38.100Z,9.30
2023-01-08T21:54:05.005Z,9.40
2023-01-08T21:56:31.778Z,9.30
2023-01-08T21:58:58.423Z,9.30
2023-01-08T22:01:25.176Z,9.30
2023-01-08T22:03:52.026Z,9.40
2023-01-08T22:06:18.692Z,9.30
2023-01-08T22:08:50.149Z,9.30
2023-01-08T22:11:16.829Z,9.30
2023-01-08T22:13:43.489Z,9.30
2023-01-08T22:16:10.672Z,9.30
2023-01-08T22:18:38.133Z,9.40
2023-01-08T22:21:10.326Z,9.40
2023-01-08T22:23:37.571Z,9.40
2023-01-08T22:26:06.548Z,9.30
2023-01-08T22:28:33.727Z,9.30
2023-01-08T22:31:09.157Z,9.30
2023-01-08T22:33:36.987Z,9.30
2023-01-08T22:36:05.482Z,9.30
2023-01-08T22:38:32.491Z,9.30
2023-01-08T22:40:59.276Z,9.30
2023-01-08T22:43:26.052Z,9.30
2023-01-08T22:45:57.766Z,9.20
2023-01-08T22:48:25.797Z,9.20
2023-01-08T22:50:52.571Z,9.30
2023-01-08T22:53:19.632Z,9.20
2023-01-08T22:55:47.782Z,9.30
2023-01-08T22:58:16.070Z,9.20
2023-01-08T23:00:43.516Z,9.20
2023-01-08T23:03:10.423Z,9.20
2023-01-08T23:05:37.149Z,9.20
2023-01-08T23:08:04.167Z,9.20
2023-01-08T23:10:31.204Z,9.20
2023-01-08T23:12:57.855Z,9.20
2023-01-08T23:15:24.636Z,9.20
2023-01-08T23:17:52.489Z,9.20
2023-01-08T23:20:20.643Z,9.20
2023-01-08T23:22:48.615Z,9.30
2023-01-08T23:25:16.116Z,9.20
2023-01-08T23:27:44.732Z,9.20
2023-01-08T23:30:12.050Z,9.20
2023-01-08T23:32:39.550Z,9.20
2023-01-08T23:35:06.407Z,9.20
2023-01-08T23:37:34.114Z,9.20
2023-01-08T23:40:00.776Z,9.10
2023-01-08T23:42:29.486Z,9.20
2023-01-08T23:44:56.374Z,9.10
2023-01-08T23:47:23.074Z,9.10
2023-01-08T23:49:50.072Z,9.10
2023-01-08T23:52:16.732Z,9.20
2023-01-08T23:54:43.375Z,9.10
2023-01-08T23:57:10.066Z,9.10
2023-01-08T23:59:36.769Z,9.10
